createdAt,value
2018-08-10T00:01:32.498Z,58.04
2018-08-10T00:04:03.514Z,57.96
2018-08-10T00:06:34.609Z,57.14
2018-08-10T00:09:08.545Z,58.37
2018-08-10T00:11:39.589Z,57.53
2018-08-10T00:14:10.521Z,58.35
2018-08-10T00:16:41.668Z,57.91
2018-08-10T00:19:12.645Z,57.83
2018-08-10T00:21:43.579Z,57.04
2018-08-10T00:24:14.524Z,57.22
2018-08-10T00:26:45.513Z,56.55
2018-08-10T00:29:16.542Z,57.24
2018-08-10T00:31:47.520Z,56.31
2018-08-10T00:34:18.489Z,56.69
2018-08-10T00:36:49.530Z,56.69
2018-08-10T00:39:20.483Z,56.89
2018-08-10T00:41:51.506Z,55.81
2018-08-10T00:44:22.499Z,56.13
2018-08-10T00:46:53.514Z,56.93
2018-08-10T00:49:24.551Z,56.16
2018-08-10T00:51:55.531Z,56.19
2018-08-10T00:54:26.497Z,55.96
2018-08-10T00:56:57.538Z,55.86
2018-08-10T00:59:28.507Z,55.37
2018-08-10T01:01:59.501Z,54.71
2018-08-10T01:04:31.352Z,53.84
2018-08-10T01:07:02.370Z,53.97
2018-08-10T01:09:33.397Z,53.82
2018-08-10T01:12:04.527Z,54.62
2018-08-10T01:14:37.558Z,54.87
2018-08-10T01:17:08.517Z,54.45
2018-08-10T01:19:39.502Z,54.50
2018-08-10T01:22:10.513Z,54.15
2018-08-10T01:24:41.503Z,53.54
2018-08-10T01:27:17.769Z,54.08
2018-08-10T01:29:48.565Z,54.56
2018-08-10T01:32:19.531Z,54.41
2018-08-10T01:34:50.501Z,54.64
2018-08-10T01:37:21.503Z,55.37
2018-08-10T01:39:52.510Z,54.22
2018-08-10T01:42:23.507Z,54.92
2018-08-10T01:44:54.547Z,54.93
2018-08-10T01:47:25.551Z,54.88
2018-08-10T01:49:56.490Z,55.00
2018-08-10T01:52:27.519Z,54.36
2018-08-10T01:54:58.476Z,55.81
2018-08-10T01:57:29.495Z,55.71
2018-08-10T02:00:00.625Z,55.79
2018-08-10T02:02:31.685Z,55.76
2018-08-10T02:05:02.647Z,55.51
2018-08-10T02:07:37.125Z,56.24
2018-08-10T02:10:12.419Z,56.29
2018-08-10T02:12:44.460Z,55.83
2018-08-10T02:15:17.757Z,56.51
2018-08-10T02:20:33.605Z,56.48
2018-08-10T02:23:04.589Z,57.62
2018-08-10T02:25:35.529Z,56.45
2018-08-10T02:28:06.490Z,57.14
2018-08-10T02:30:37.500Z,57.13
2018-08-10T02:33:08.535Z,57.22
2018-08-10T02:35:39.521Z,57.67
2018-08-10T02:38:10.520Z,58.16
2018-08-10T02:40:41.487Z,57.77
2018-08-10T02:43:12.781Z,57.31
2018-08-10T02:45:43.594Z,57.86
2018-08-10T02:48:14.505Z,57.80
2018-08-10T02:50:45.489Z,57.54
2018-08-10T02:53:16.493Z,58.34
2018-08-10T02:55:47.498Z,58.48
2018-08-10T02:58:18.833Z,57.81
2018-08-10T03:00:49.656Z,57.68
2018-08-10T03:03:20.575Z,57.39
2018-08-10T03:05:51.590Z,58.34
2018-08-10T03:08:22.606Z,58.20
2018-08-10T03:10:53.545Z,58.89
2018-08-10T03:13:24.502Z,58.66
2018-08-10T03:15:55.483Z,58.31
2018-08-10T03:18:26.517Z,58.48
2018-08-10T03:20:57.477Z,58.65
2018-08-10T03:23:28.503Z,58.31
2018-08-10T03:25:59.490Z,59.03
2018-08-10T03:28:30.801Z,58.46
2018-08-10T03:31:01.614Z,58.08
2018-08-10T03:33:33.361Z,57.33
2018-08-10T03:36:04.400Z,57.83
2018-08-10T03:38:35.484Z,58.22
2018-08-10T03:41:06.573Z,57.71
2018-08-10T03:43:37.517Z,57.82
2018-08-10T03:46:08.531Z,58.29
2018-08-10T03:48:39.541Z,57.84
2018-08-10T03:51:10.517Z,57.58
2018-08-10T03:53:41.522Z,57.99
2018-08-10T03:56:12.528Z,58.46
2018-08-10T03:58:43.505Z,57.86
2018-08-10T04:01:14.521Z,58.28
2018-08-10T04:03:45.509Z,57.80
2018-08-10T04:06:16.538Z,57.83
2018-08-10T04:08:47.562Z,58.12
2018-08-10T04:11:18.519Z,57.24
2018-08-10T04:13:49.559Z,57.66
2018-08-10T04:16:20.502Z,56.77
2018-08-10T04:18:51.524Z,57.55
2018-08-10T04:21:22.531Z,57.37
2018-08-10T04:23:53.534Z,57.74
2018-08-10T04:26:24.606Z,57.71
2018-08-10T04:28:55.518Z,58.09
2018-08-10T04:31:26.642Z,57.82
2018-08-10T04:33:57.578Z,59.08
2018-08-10T04:36:29.921Z,58.17
2018-08-10T04:39:00.766Z,58.37
2018-08-10T04:41:31.923Z,58.20
2018-08-10T04:44:03.021Z,57.89
2018-08-10T04:46:34.453Z,57.92
2018-08-10T04:49:06.294Z,58.07
2018-08-10T04:51:37.372Z,57.62
2018-08-10T04:54:08.489Z,57.62
2018-08-10T04:56:39.479Z,57.42
2018-08-10T04:59:10.513Z,57.51
2018-08-10T05:01:42.212Z,57.19
2018-08-10T05:04:13.401Z,57.61
2018-08-10T05:06:44.498Z,58.22
2018-08-10T05:09:16.289Z,58.08
2018-08-10T05:11:47.378Z,58.03
2018-08-10T05:14:18.512Z,57.75
2018-08-10T05:16:49.678Z,57.57
2018-08-10T05:19:20.604Z,59.26
2018-08-10T05:21:51.573Z,58.67
2018-08-10T05:24:22.602Z,58.70
2018-08-10T05:26:53.581Z,58.41
2018-08-10T05:29:24.541Z,57.27
2018-08-10T05:31:55.513Z,58.12
2018-08-10T05:34:26.550Z,57.68
2018-08-10T05:36:57.544Z,58.14
2018-08-10T05:39:28.518Z,58.20
2018-08-10T05:41:59.512Z,58.14
2018-08-10T05:44:30.497Z,57.94
2018-08-10T05:47:01.586Z,58.06
2018-08-10T05:49:32.586Z,57.29
2018-08-10T05:52:03.569Z,56.69
2018-08-10T05:54:34.608Z,58.25
2018-08-10T05:57:06.426Z,57.17
2018-08-10T05:59:37.570Z,57.84
2018-08-10T06:02:08.686Z,57.28
2018-08-10T06:04:39.680Z,56.90
2018-08-10T06:07:10.588Z,56.56
2018-08-10T06:09:41.574Z,56.80
2018-08-10T06:12:12.553Z,56.12
2018-08-10T06:14:43.522Z,55.90
2018-08-10T06:17:14.515Z,55.77
2018-08-10T06:19:45.563Z,54.84
2018-08-10T06:22:16.480Z,54.32
2018-08-10T06:24:47.489Z,54.17
2018-08-10T06:27:18.557Z,54.54
2018-08-10T06:29:49.523Z,54.60
2018-08-10T06:32:21.345Z,54.29
2018-08-10T06:34:52.398Z,54.05
2018-08-10T06:37:23.521Z,54.78
2018-08-10T06:39:54.641Z,54.38
2018-08-10T06:42:25.508Z,54.09
2018-08-10T06:44:56.601Z,54.49
2018-08-10T06:47:27.738Z,53.50
2018-08-10T06:49:58.599Z,54.04
2018-08-10T06:52:29.559Z,53.79
2018-08-10T06:55:00.497Z,53.15
2018-08-10T06:57:31.464Z,53.05
2018-08-10T07:00:02.665Z,52.25
2018-08-10T07:02:33.547Z,52.97
2018-08-10T07:05:04.515Z,53.23
2018-08-10T07:07:35.534Z,52.52
2018-08-10T07:10:08.324Z,52.30
2018-08-10T07:12:39.544Z,51.91
2018-08-10T07:15:10.497Z,52.38
2018-08-10T07:17:41.629Z,51.46
2018-08-10T07:20:12.557Z,51.63
2018-08-10T07:22:43.509Z,50.92
2018-08-10T07:25:14.486Z,51.08
2018-08-10T07:27:45.510Z,50.65
2018-08-10T07:30:16.458Z,49.91
2018-08-10T07:32:47.463Z,49.35
2018-08-10T07:35:18.472Z,49.85
2018-08-10T07:37:49.472Z,50.30
2018-08-10T07:40:20.498Z,50.33
2018-08-10T07:42:51.523Z,49.60
2018-08-10T07:45:22.522Z,49.88
2018-08-10T07:47:53.488Z,49.13
2018-08-10T07:50:24.518Z,48.54
2018-08-10T07:52:55.487Z,48.98
2018-08-10T07:55:26.504Z,48.91
2018-08-10T07:57:57.567Z,48.52
2018-08-10T08:00:28.569Z,47.42
2018-08-10T08:02:59.549Z,48.11
2018-08-10T08:05:30.523Z,47.87
2018-08-10T08:08:01.524Z,47.14
2018-08-10T08:10:32.577Z,47.04
2018-08-10T08:13:03.473Z,46.52
2018-08-10T08:15:34.474Z,46.47
2018-08-10T08:18:05.550Z,47.02
2018-08-10T08:20:38.380Z,46.30
2018-08-10T08:23:09.470Z,45.81
2018-08-10T08:25:40.574Z,46.12
2018-08-10T08:28:11.473Z,44.45
2018-08-10T08:30:42.494Z,44.71
2018-08-10T08:33:13.489Z,44.74
2018-08-10T08:35:44.524Z,43.91
2018-08-10T08:38:38.746Z,41.36
2018-08-10T08:41:10.683Z,43.80
2018-08-10T08:46:04.434Z,42.82
2018-08-10T08:48:36.832Z,39.96
2018-08-10T08:51:10.574Z,39.01
2018-08-10T08:53:41.489Z,39.27
2018-08-10T08:56:17.025Z,39.81
2018-08-10T08:58:49.499Z,39.84
2018-08-10T09:01:20.495Z,39.19
2018-08-10T09:05:07.801Z,39.66
2018-08-10T09:07:39.505Z,40.26
2018-08-10T09:10:16.390Z,39.96
2018-08-10T09:12:47.382Z,36.42
2018-08-10T09:15:20.013Z,36.63
2018-08-10T09:17:51.285Z,38.59
2018-08-10T09:20:22.496Z,35.96
2018-08-10T09:22:53.500Z,35.94
2018-08-10T09:25:24.473Z,35.45
2018-08-10T09:27:55.481Z,37.17
2018-08-10T09:30:26.473Z,37.95
2018-08-10T09:32:57.529Z,34.97
2018-08-10T09:35:28.506Z,37.29
2018-08-10T09:37:59.518Z,37.73
2018-08-10T09:40:30.577Z,39.09
2018-08-10T09:43:01.498Z,38.63
2018-08-10T09:45:32.514Z,40.28
2018-08-10T09:48:03.497Z,38.39
2018-08-10T09:50:34.494Z,37.92
2018-08-10T09:53:06.389Z,37.19
2018-08-10T09:55:38.584Z,37.68
2018-08-10T09:58:13.625Z,37.65
2018-08-10T10:00:50.022Z,37.26
2018-08-10T10:03:24.550Z,38.88
2018-08-10T10:05:57.033Z,37.89
2018-08-10T10:08:28.399Z,38.48
2018-08-10T10:10:59.517Z,38.89
2018-08-10T10:13:30.476Z,41.08
2018-08-10T10:16:01.494Z,40.71
2018-08-10T10:18:32.504Z,40.85
2018-08-10T10:21:03.531Z,40.79
2018-08-10T10:23:34.609Z,40.31
2018-08-10T10:26:05.681Z,41.14
2018-08-10T10:28:36.566Z,42.00
2018-08-10T10:31:07.554Z,38.92
2018-08-10T10:33:38.529Z,39.94
2018-08-10T10:36:09.483Z,38.98
2018-08-10T10:38:40.593Z,38.18
2018-08-10T10:41:12.526Z,37.84
2018-08-10T10:43:43.501Z,37.20
2018-08-10T10:46:14.493Z,39.72
2018-08-10T10:48:45.529Z,38.54
2018-08-10T10:51:16.592Z,38.12
2018-08-10T10:53:47.481Z,38.04
2018-08-10T10:56:18.437Z,38.09
2018-08-10T10:58:50.205Z,38.68
2018-08-10T11:01:21.349Z,37.96
2018-08-10T11:03:52.381Z,38.06
2018-08-10T11:06:23.516Z,37.49
2018-08-10T11:08:54.492Z,36.36
2018-08-10T11:11:25.502Z,35.05
2018-08-10T11:13:56.489Z,35.97
2018-08-10T11:16:27.476Z,35.24
2018-08-10T11:18:58.525Z,34.25
2018-08-10T11:21:29.852Z,34.43
2018-08-10T11:24:01.268Z,33.69
2018-08-10T11:26:32.383Z,35.06
2018-08-10T11:29:03.489Z,33.55
2018-08-10T11:31:34.474Z,31.35
2018-08-10T11:34:05.530Z,31.54
2018-08-10T11:36:36.536Z,31.21
2018-08-10T11:39:11.769Z,31.37
2018-08-10T11:41:42.624Z,33.39
2018-08-10T11:44:13.557Z,33.61
2018-08-10T11:46:44.588Z,34.44
2018-08-10T11:49:15.566Z,32.88
2018-08-10T11:51:46.506Z,30.52
2018-08-10T11:54:17.496Z,30.03
2018-08-10T11:56:48.485Z,29.42
2018-08-10T11:59:19.546Z,30.81
2018-08-10T12:01:50.511Z,31.03
2018-08-10T12:04:21.530Z,31.21
2018-08-10T12:06:52.509Z,28.79
2018-08-10T12:09:23.534Z,28.80
2018-08-10T12:11:54.497Z,28.79
2018-08-10T12:14:25.525Z,28.87
2018-08-10T12:16:56.473Z,27.87
2018-08-10T12:19:27.499Z,28.66
2018-08-10T12:21:58.508Z,28.30
2018-08-10T12:24:29.480Z,29.54
2018-08-10T12:27:00.487Z,31.29
2018-08-10T12:29:31.491Z,31.49
2018-08-10T12:32:02.507Z,30.72
2018-08-10T12:34:34.023Z,32.05
2018-08-10T12:37:05.299Z,33.84
2018-08-10T12:39:36.493Z,30.77
2018-08-10T12:42:07.489Z,29.77
2018-08-10T12:44:38.498Z,32.87
2018-08-10T12:47:09.564Z,33.56
2018-08-10T12:49:40.521Z,31.28
2018-08-10T12:52:11.525Z,33.58
2018-08-10T12:54:42.489Z,32.40
2018-08-10T12:57:13.558Z,31.86
2018-08-10T12:59:44.520Z,29.81
2018-08-10T13:02:15.542Z,32.70
2018-08-10T13:04:46.535Z,31.80
2018-08-10T13:07:17.590Z,29.82
2018-08-10T13:09:48.540Z,28.49
2018-08-10T13:12:19.692Z,29.34
2018-08-10T13:17:35.662Z,28.53
2018-08-10T13:20:09.722Z,27.23
2018-08-10T13:22:40.553Z,29.97
2018-08-10T13:25:12.204Z,28.56
2018-08-10T13:27:43.526Z,30.04
2018-08-10T13:30:14.528Z,30.96
2018-08-10T13:32:45.526Z,31.05
2018-08-10T13:35:16.545Z,32.18
2018-08-10T13:37:47.497Z,30.69
2018-08-10T13:40:18.557Z,31.98
2018-08-10T13:42:49.578Z,33.19
2018-08-10T13:45:20.524Z,32.37
2018-08-10T13:47:51.525Z,33.74
2018-08-10T13:50:22.619Z,34.47
2018-08-10T13:52:53.606Z,33.90
2018-08-10T13:55:24.541Z,33.54
2018-08-10T13:57:55.501Z,32.69
2018-08-10T14:00:27.205Z,32.92
2018-08-10T14:02:58.396Z,34.11
2018-08-10T14:05:29.528Z,34.06
2018-08-10T14:08:00.503Z,33.94
2018-08-10T14:10:31.538Z,33.96
2018-08-10T14:13:02.499Z,34.60
2018-08-10T14:15:33.538Z,35.15
2018-08-10T14:18:04.646Z,35.23
2018-08-10T14:20:35.613Z,35.06
2018-08-10T14:23:06.526Z,35.17
2018-08-10T14:25:37.643Z,34.11
2018-08-10T14:28:08.577Z,34.89
2018-08-10T14:30:39.709Z,33.44
2018-08-10T14:33:10.640Z,32.45
2018-08-10T14:35:41.615Z,32.41
2018-08-10T14:38:12.502Z,31.91
2018-08-10T14:40:43.516Z,31.06
2018-08-10T14:43:14.562Z,29.76
2018-08-10T14:45:45.605Z,28.87
2018-08-10T14:48:16.553Z,31.35
2018-08-10T14:50:47.666Z,29.53
2018-08-10T14:53:18.621Z,29.69
2018-08-10T14:55:50.397Z,30.20
2018-08-10T14:58:21.603Z,28.55
2018-08-10T15:00:52.575Z,28.49
2018-08-10T15:03:23.512Z,27.93
2018-08-10T15:05:54.517Z,28.26
2018-08-10T15:08:25.492Z,26.99
2018-08-10T15:10:56.576Z,27.48
2018-08-10T15:13:28.683Z,26.83
2018-08-10T15:15:59.561Z,28.20
2018-08-10T15:18:30.589Z,27.18
2018-08-10T15:21:01.513Z,27.71
2018-08-10T15:23:32.559Z,27.99
2018-08-10T15:26:03.597Z,28.00
2018-08-10T15:28:34.528Z,28.31
2018-08-10T15:31:05.530Z,28.62
2018-08-10T15:33:36.520Z,28.06
2018-08-10T15:36:07.693Z,28.87
2018-08-10T15:38:38.616Z,28.33
2018-08-10T15:41:09.637Z,29.21
2018-08-10T15:43:40.583Z,29.05
2018-08-10T15:46:11.526Z,28.89
2018-08-10T15:48:42.550Z,29.55
2018-08-10T15:51:13.501Z,28.72
2018-08-10T15:53:44.516Z,29.55
2018-08-10T15:56:15.599Z,29.37
2018-08-10T15:58:46.509Z,27.71
2018-08-10T16:01:17.520Z,28.10
2018-08-10T16:03:48.508Z,29.00
2018-08-10T16:06:19.577Z,28.96
2018-08-10T16:08:50.514Z,28.46
2018-08-10T16:11:21.512Z,29.18
2018-08-10T16:13:52.548Z,28.06
2018-08-10T16:16:23.509Z,28.39
2018-08-10T16:20:42.488Z,28.84
2018-08-10T16:23:13.492Z,29.49
2018-08-10T16:25:44.596Z,28.51
2018-08-10T16:28:15.540Z,29.76
2018-08-10T16:30:46.546Z,29.64
2018-08-10T16:36:00.537Z,29.02
2018-08-10T16:38:31.522Z,29.29
2018-08-10T16:41:02.525Z,28.92
2018-08-10T16:43:33.522Z,29.89
2018-08-10T16:46:04.666Z,30.81
2018-08-10T16:48:35.577Z,30.62
2018-08-10T16:51:06.501Z,30.64
2018-08-10T16:53:37.519Z,30.73
2018-08-10T16:56:08.504Z,30.66
2018-08-10T16:58:39.555Z,29.74
2018-08-10T17:01:10.774Z,30.28
2018-08-10T17:03:41.645Z,30.08
2018-08-10T17:06:12.569Z,29.48
2018-08-10T17:08:43.530Z,29.81
2018-08-10T17:11:14.512Z,29.66
2018-08-10T17:13:45.545Z,29.85
2018-08-10T17:16:16.537Z,29.58
2018-08-10T17:21:31.909Z,30.76
2018-08-10T17:26:46.511Z,30.32
2018-08-10T17:29:18.253Z,31.43
2018-08-10T17:31:49.375Z,30.45
2018-08-10T17:34:20.429Z,32.01
2018-08-10T17:36:51.493Z,31.25
2018-08-10T17:39:22.578Z,30.24
2018-08-10T17:41:53.653Z,30.66
2018-08-10T17:44:24.578Z,31.20
2018-08-10T17:46:55.632Z,30.42
2018-08-10T17:49:26.547Z,31.19
2018-08-10T17:51:57.505Z,30.90
2018-08-10T17:54:30.296Z,30.87
2018-08-10T17:57:00.440Z,31.48
2018-08-10T17:59:32.384Z,31.43
2018-08-10T18:02:03.541Z,31.65
2018-08-10T18:04:34.522Z,31.32
2018-08-10T18:07:06.020Z,30.95
2018-08-10T18:12:19.681Z,31.44
2018-08-10T18:14:50.617Z,31.03
2018-08-10T18:17:21.752Z,32.03
2018-08-10T18:19:52.592Z,31.94
2018-08-10T18:22:23.484Z,31.33
2018-08-10T18:24:54.498Z,32.22
2018-08-10T18:27:25.619Z,32.03
2018-08-10T18:29:56.500Z,31.57
2018-08-10T18:32:27.626Z,31.79
2018-08-10T18:34:58.543Z,32.46
2018-08-10T18:37:29.545Z,33.16
2018-08-10T18:40:00.497Z,32.78
2018-08-10T18:42:31.505Z,31.82
2018-08-10T18:45:02.539Z,32.16
2018-08-10T18:47:33.481Z,32.54
2018-08-10T18:50:05.226Z,32.52
2018-08-10T18:52:37.291Z,32.50
2018-08-10T18:55:09.626Z,32.04
2018-08-10T18:57:40.543Z,31.92
2018-08-10T19:00:17.444Z,32.98
2018-08-10T19:02:48.550Z,32.60
2018-08-10T19:05:19.626Z,33.50
2018-08-10T19:07:50.833Z,32.48
2018-08-10T19:10:24.281Z,33.17
2018-08-10T19:12:54.426Z,33.60
2018-08-10T19:15:25.497Z,33.55
2018-08-10T19:17:56.499Z,33.83
2018-08-10T19:20:27.505Z,33.00
2018-08-10T19:22:58.514Z,33.05
2018-08-10T19:25:29.511Z,33.97
2018-08-10T19:28:00.529Z,34.10
2018-08-10T19:30:31.560Z,34.46
2018-08-10T19:33:02.525Z,34.77
2018-08-10T19:35:33.511Z,34.58
2018-08-10T19:38:04.496Z,34.89
2018-08-10T19:40:35.518Z,34.31
2018-08-10T19:43:06.582Z,35.23
2018-08-10T19:45:37.500Z,35.46
2018-08-10T19:48:08.717Z,35.04
2018-08-10T19:50:39.596Z,35.18
2018-08-10T19:53:10.517Z,35.19
2018-08-10T19:55:41.496Z,35.87
2018-08-10T19:58:13.548Z,36.14
2018-08-10T20:00:44.557Z,36.10
2018-08-10T20:03:15.496Z,35.59
2018-08-10T20:05:46.506Z,36.56
2018-08-10T20:08:17.548Z,36.77
2018-08-10T20:10:48.505Z,36.09
2018-08-10T20:13:19.495Z,36.53
2018-08-10T20:15:50.594Z,36.90
2018-08-10T20:18:21.553Z,36.82
2018-08-10T20:23:35.594Z,36.90
2018-08-10T20:28:51.429Z,36.88
2018-08-10T20:31:22.661Z,36.75
2018-08-10T20:33:53.589Z,35.90
2018-08-10T20:36:24.509Z,36.65
2018-08-10T20:38:55.567Z,36.29
2018-08-10T20:41:26.497Z,36.44
2018-08-10T20:43:57.490Z,37.14
2018-08-10T20:46:28.518Z,36.74
2018-08-10T20:48:59.477Z,36.16
2018-08-10T20:51:30.502Z,36.20
2018-08-10T20:54:01.653Z,36.68
2018-08-10T20:56:32.589Z,37.03
2018-08-10T20:59:03.666Z,37.01
2018-08-10T21:01:34.596Z,37.11
2018-08-10T21:04:05.476Z,36.38
2018-08-10T21:06:37.563Z,36.23
2018-08-10T21:09:13.405Z,37.15
2018-08-10T21:11:44.764Z,38.08
2018-08-10T21:14:15.629Z,37.92
2018-08-10T21:16:46.593Z,37.54
2018-08-10T21:19:17.470Z,37.58
2018-08-10T21:21:48.515Z,37.18
2018-08-10T21:24:19.468Z,38.09
2018-08-10T21:26:50.504Z,38.15
2018-08-10T21:29:21.465Z,38.15
2018-08-10T21:31:52.504Z,37.75
2018-08-10T21:34:23.646Z,38.17
2018-08-10T21:36:54.630Z,38.46
2018-08-10T21:39:25.480Z,38.49
2018-08-10T21:41:56.527Z,37.92
2018-08-10T21:44:27.475Z,38.85
2018-08-10T21:46:58.474Z,38.82
2018-08-10T21:49:29.457Z,39.00
2018-08-10T21:52:00.508Z,37.94
2018-08-10T21:54:31.559Z,37.77
2018-08-10T21:57:02.551Z,37.90
2018-08-10T21:59:33.485Z,37.41
2018-08-10T22:02:04.573Z,38.16
2018-08-10T22:04:35.485Z,37.79
2018-08-10T22:07:06.605Z,38.06
2018-08-10T22:09:37.623Z,37.43
2018-08-10T22:12:08.572Z,38.41
2018-08-10T22:14:44.621Z,37.85
2018-08-10T22:17:20.749Z,37.45
2018-08-10T22:19:51.561Z,37.96
2018-08-10T22:22:22.545Z,37.45
2018-08-10T22:24:53.501Z,37.34
2018-08-10T22:27:24.482Z,37.93
2018-08-10T22:29:55.513Z,38.57
2018-08-10T22:32:26.493Z,38.11
2018-08-10T22:34:57.505Z,38.16
2018-08-10T22:37:28.493Z,38.36
2018-08-10T22:39:59.520Z,37.91
2018-08-10T22:42:30.505Z,38.63
2018-08-10T22:45:01.489Z,38.26
2018-08-10T22:47:32.490Z,41.23
2018-08-10T22:50:03.498Z,42.17
2018-08-10T22:52:34.505Z,42.16
2018-08-10T22:55:06.785Z,42.19
2018-08-10T22:57:37.701Z,42.11
2018-08-10T23:00:08.617Z,42.48
2018-08-10T23:02:39.524Z,43.07
2018-08-10T23:05:10.555Z,42.89
2018-08-10T23:07:41.501Z,42.89
2018-08-10T23:10:14.541Z,42.42
2018-08-10T23:12:45.769Z,42.24
2018-08-10T23:15:16.592Z,42.94
2018-08-10T23:17:47.793Z,43.84
2018-08-10T23:20:18.671Z,42.99
2018-08-10T23:22:50.272Z,42.96
2018-08-10T23:25:20.372Z,42.88
2018-08-10T23:27:51.535Z,41.61
2018-08-10T23:30:22.536Z,43.32
2018-08-10T23:32:53.501Z,42.33
2018-08-10T23:35:24.481Z,42.62
2018-08-10T23:37:55.497Z,41.84
2018-08-10T23:40:26.486Z,42.65
2018-08-10T23:42:57.503Z,42.67
2018-08-10T23:45:28.506Z,42.96
2018-08-10T23:47:59.534Z,42.92
2018-08-10T23:50:30.510Z,42.98
2018-08-10T23:53:01.510Z,42.43
2018-08-10T23:55:32.497Z,43.00
2018-08-10T23:58:03.544Z,43.76
